sensor_id;sensor_type;location;lat;lon;timestamp;temperature;humidity
44063;DHT22;29727;47.606;19.130;2023-04-25T06:08:23;12.00;80.40
44063;DHT22;29727;47.606;19.130;2023-04-25T06:10:48;12.00;80.60
44063;DHT22;29727;47.606;19.130;2023-04-25T06:13:14;11.80;81.30
44063;DHT22;29727;47.606;19.130;2023-04-25T06:15:40;12.00;81.50
44063;DHT22;29727;47.606;19.130;2023-04-25T06:18:07;11.90;81.60
44063;DHT22;29727;47.606;19.130;2023-04-25T06:20:32;12.60;82.90
44063;DHT22;29727;47.606;19.130;2023-04-25T06:22:58;12.00;82.50
44063;DHT22;29727;47.606;19.130;2023-04-25T06:25:23;12.00;81.80
44063;DHT22;29727;47.606;19.130;2023-04-25T06:27:49;11.90;83.10
44063;DHT22;29727;47.606;19.130;2023-04-25T06:30:15;12.00;83.20
44063;DHT22;29727;47.606;19.130;2023-04-25T06:32:43;11.90;83.20
44063;DHT22;29727;47.606;19.130;2023-04-25T06:35:09;12.00;83.60
44063;DHT22;29727;47.606;19.130;2023-04-25T06:37:35;11.90;83.50
44063;DHT22;29727;47.606;19.130;2023-04-25T06:40:01;11.90;83.40
44063;DHT22;29727;47.606;19.130;2023-04-25T06:42:27;11.90;83.90
44063;DHT22;29727;47.606;19.130;2023-04-25T06:44:53;12.00;83.70
44063;DHT22;29727;47.606;19.130;2023-04-25T06:47:19;11.90;85.30
44063;DHT22;29727;47.606;19.130;2023-04-25T06:49:44;11.90;84.90
44063;DHT22;29727;47.606;19.130;2023-04-25T06:52:10;12.00;85.70
44063;DHT22;29727;47.606;19.130;2023-04-25T06:54:36;11.80;85.90
44063;DHT22;29727;47.606;19.130;2023-04-25T06:57:01;11.90;86.00
44063;DHT22;29727;47.606;19.130;2023-04-25T06:59:27;12.00;86.60
44063;DHT22;29727;47.606;19.130;2023-04-25T07:01:53;12.00;85.70
44063;DHT22;29727;47.606;19.130;2023-04-25T07:04:19;12.00;85.00
44063;DHT22;29727;47.606;19.130;2023-04-25T07:06:44;12.00;87.10
44063;DHT22;29727;47.606;19.130;2023-04-25T07:09:12;12.10;86.70
44063;DHT22;29727;47.606;19.130;2023-04-25T07:11:38;11.90;86.50
44063;DHT22;29727;47.606;19.130;2023-04-25T07:14:04;12.00;85.70
44063;DHT22;29727;47.606;19.130;2023-04-25T07:16:29;11.90;85.60
44063;DHT22;29727;47.606;19.130;2023-04-25T07:18:55;12.00;86.20
44063;DHT22;29727;47.606;19.130;2023-04-25T07:21:21;12.00;86.20
44063;DHT22;29727;47.606;19.130;2023-04-25T07:23:46;12.10;85.80
44063;DHT22;29727;47.606;19.130;2023-04-25T07:26:12;12.20;86.00
44063;DHT22;29727;47.606;19.130;2023-04-25T07:28:38;12.10;87.70
44063;DHT22;29727;47.606;19.130;2023-04-25T07:31:04;12.10;86.90
44063;DHT22;29727;47.606;19.130;2023-04-25T07:33:30;12.10;86.70
44063;DHT22;29727;47.606;19.130;2023-04-25T07:35:56;12.20;86.70
44063;DHT22;29727;47.606;19.130;2023-04-25T07:38:22;12.30;85.60
44063;DHT22;29727;47.606;19.130;2023-04-25T07:53:54;12.50;82.90
44063;DHT22;29727;47.606;19.130;2023-04-25T07:56:19;12.50;83.40
44063;DHT22;29727;47.606;19.130;2023-04-25T07:58:45;12.60;84.30
44063;DHT22;29727;47.606;19.130;2023-04-25T08:01:11;12.60;84.10
44063;DHT22;29727;47.606;19.130;2023-04-25T08:03:36;12.70;82.40
44063;DHT22;29727;47.606;19.130;2023-04-25T08:06:02;13.00;82.50
44063;DHT22;29727;47.606;19.130;2023-04-25T08:08:28;12.80;82.30
44063;DHT22;29727;47.606;19.130;2023-04-25T08:10:53;12.90;81.90
44063;DHT22;29727;47.606;19.130;2023-04-25T08:13:19;12.80;81.00
44063;DHT22;29727;47.606;19.130;2023-04-25T08:15:45;13.00;80.80
44063;DHT22;29727;47.606;19.130;2023-04-25T08:18:11;13.00;81.60
44063;DHT22;29727;47.606;19.130;2023-04-25T08:20:36;13.10;81.00
44063;DHT22;29727;47.606;19.130;2023-04-25T08:23:02;13.20;81.00
44063;DHT22;29727;47.606;19.130;2023-04-25T08:25:27;13.30;79.60
44063;DHT22;29727;47.606;19.130;2023-04-25T08:27:53;13.30;79.70
44063;DHT22;29727;47.606;19.130;2023-04-25T08:30:19;13.40;79.90
44063;DHT22;29727;47.606;19.130;2023-04-25T08:32:45;13.40;77.70
44063;DHT22;29727;47.606;19.130;2023-04-25T08:35:10;13.50;77.50
44063;DHT22;29727;47.606;19.130;2023-04-25T08:37:36;13.50;77.10
44063;DHT22;29727;47.606;19.130;2023-04-25T08:40:03;13.40;76.70
44063;DHT22;29727;47.606;19.130;2023-04-25T08:42:33;13.60;76.40
44063;DHT22;29727;47.606;19.130;2023-04-25T08:45:01;13.70;79.30
44063;DHT22;29727;47.606;19.130;2023-04-25T08:47:27;13.70;79.50
44063;DHT22;29727;47.606;19.130;2023-04-25T08:49:55;13.70;76.40
44063;DHT22;29727;47.606;19.130;2023-04-25T08:52:24;13.90;76.20
44063;DHT22;29727;47.606;19.130;2023-04-25T08:54:52;13.80;75.20
44063;DHT22;29727;47.606;19.130;2023-04-25T08:57:19;13.80;76.30
44063;DHT22;29727;47.606;19.130;2023-04-25T08:59:47;13.90;75.80
44063;DHT22;29727;47.606;19.130;2023-04-25T09:02:13;13.90;74.60
44063;DHT22;29727;47.606;19.130;2023-04-25T09:04:44;14.00;76.00
44063;DHT22;29727;47.606;19.130;2023-04-25T09:07:10;14.20;73.50
44063;DHT22;29727;47.606;19.130;2023-04-25T09:09:35;14.30;75.00
44063;DHT22;29727;47.606;19.130;2023-04-25T09:12:01;14.30;74.70
44063;DHT22;29727;47.606;19.130;2023-04-25T09:14:27;14.40;73.00
44063;DHT22;29727;47.606;19.130;2023-04-25T09:19:42;14.60;71.90
44063;DHT22;29727;47.606;19.130;2023-04-25T09:22:09;14.70;71.90
44063;DHT22;29727;47.606;19.130;2023-04-25T09:24:40;14.60;71.30
44063;DHT22;29727;47.606;19.130;2023-04-25T09:27:09;14.70;72.80
44063;DHT22;29727;47.606;19.130;2023-04-25T09:29:38;14.60;72.30
44063;DHT22;29727;47.606;19.130;2023-04-25T09:32:20;14.70;71.90
44063;DHT22;29727;47.606;19.130;2023-04-25T09:34:51;14.80;70.80
44063;DHT22;29727;47.606;19.130;2023-04-25T09:37:25;15.00;70.30
44063;DHT22;29727;47.606;19.130;2023-04-25T09:40:00;14.90;70.50
44063;DHT22;29727;47.606;19.130;2023-04-25T09:42:31;15.20;69.70
44063;DHT22;29727;47.606;19.130;2023-04-25T09:44:58;15.10;68.50
44063;DHT22;29727;47.606;19.130;2023-04-25T09:47:25;15.20;68.70
44063;DHT22;29727;47.606;19.130;2023-04-25T09:49:52;15.40;67.80
44063;DHT22;29727;47.606;19.130;2023-04-25T09:52:23;15.30;68.10
44063;DHT22;29727;47.606;19.130;2023-04-25T09:54:50;15.40;67.10
44063;DHT22;29727;47.606;19.130;2023-04-25T09:57:18;15.40;67.20
44063;DHT22;29727;47.606;19.130;2023-04-25T09:59:54;15.50;68.10
44063;DHT22;29727;47.606;19.130;2023-04-25T10:02:22;15.50;66.30
44063;DHT22;29727;47.606;19.130;2023-04-25T10:04:50;15.50;66.70
44063;DHT22;29727;47.606;19.130;2023-04-25T10:07:18;15.50;65.90
44063;DHT22;29727;47.606;19.130;2023-04-25T10:09:48;15.00;67.20
44063;DHT22;29727;47.606;19.130;2023-04-25T10:12:16;15.30;67.20
44063;DHT22;29727;47.606;19.130;2023-04-25T10:14:42;15.30;67.30
44063;DHT22;29727;47.606;19.130;2023-04-25T10:17:10;15.20;67.10
44063;DHT22;29727;47.606;19.130;2023-04-25T10:19:36;15.10;67.10
44063;DHT22;29727;47.606;19.130;2023-04-25T10:22:08;15.20;66.90
44063;DHT22;29727;47.606;19.130;2023-04-25T10:24:35;15.60;66.90
44063;DHT22;29727;47.606;19.130;2023-04-25T10:27:02;15.10;66.80
44063;DHT22;29727;47.606;19.130;2023-04-25T10:29:28;15.10;65.50
44063;DHT22;29727;47.606;19.130;2023-04-25T10:31:54;15.00;64.70
44063;DHT22;29727;47.606;19.130;2023-04-25T10:56:17;15.20;65.30
44063;DHT22;29727;47.606;19.130;2023-04-25T10:58:45;15.20;66.10
44063;DHT22;29727;47.606;19.130;2023-04-25T11:01:13;15.20;66.20
44063;DHT22;29727;47.606;19.130;2023-04-25T11:03:43;15.20;67.10
44063;DHT22;29727;47.606;19.130;2023-04-25T11:06:31;14.90;64.80
44063;DHT22;29727;47.606;19.130;2023-04-25T11:09:01;15.20;65.60
44063;DHT22;29727;47.606;19.130;2023-04-25T11:11:28;15.10;65.10
44063;DHT22;29727;47.606;19.130;2023-04-25T11:13:54;15.20;65.40
44063;DHT22;29727;47.606;19.130;2023-04-25T11:18:50;15.30;64.80
44063;DHT22;29727;47.606;19.130;2023-04-25T11:21:16;15.40;63.00
44063;DHT22;29727;47.606;19.130;2023-04-25T11:23:45;15.50;62.70
44063;DHT22;29727;47.606;19.130;2023-04-25T11:26:12;15.50;63.90
44063;DHT22;29727;47.606;19.130;2023-04-25T11:28:38;15.50;60.80
44063;DHT22;29727;47.606;19.130;2023-04-25T11:31:04;15.40;60.80
44063;DHT22;29727;47.606;19.130;2023-04-25T11:33:30;15.50;60.40
44063;DHT22;29727;47.606;19.130;2023-04-25T11:35:56;15.70;61.00
44063;DHT22;29727;47.606;19.130;2023-04-25T11:38:23;15.60;60.90
44063;DHT22;29727;47.606;19.130;2023-04-25T11:40:53;15.60;61.90
44063;DHT22;29727;47.606;19.130;2023-04-25T11:43:22;16.10;59.40
44063;DHT22;29727;47.606;19.130;2023-04-25T11:45:51;15.80;58.80
44063;DHT22;29727;47.606;19.130;2023-04-25T11:48:18;15.90;58.80
44063;DHT22;29727;47.606;19.130;2023-04-25T11:50:44;15.90;59.10
44063;DHT22;29727;47.606;19.130;2023-04-25T11:53:10;16.00;59.00
44063;DHT22;29727;47.606;19.130;2023-04-25T11:55:36;16.00;57.50
44063;DHT22;29727;47.606;19.130;2023-04-25T11:58:03;16.10;57.90
44063;DHT22;29727;47.606;19.130;2023-04-25T12:00:30;16.20;57.60
44063;DHT22;29727;47.606;19.130;2023-04-25T12:02:57;16.10;58.00
44063;DHT22;29727;47.606;19.130;2023-04-25T12:05:29;16.20;57.30
44063;DHT22;29727;47.606;19.130;2023-04-25T12:07:56;16.20;57.40
44063;DHT22;29727;47.606;19.130;2023-04-25T12:10:22;16.10;57.80
44063;DHT22;29727;47.606;19.130;2023-04-25T12:12:49;16.10;57.60
44063;DHT22;29727;47.606;19.130;2023-04-25T12:15:23;16.10;56.00
44063;DHT22;29727;47.606;19.130;2023-04-25T12:17:50;15.90;55.10
44063;DHT22;29727;47.606;19.130;2023-04-25T12:20:26;15.60;56.90
44063;DHT22;29727;47.606;19.130;2023-04-25T12:22:52;15.60;57.10
44063;DHT22;29727;47.606;19.130;2023-04-25T12:25:36;15.60;58.10
44063;DHT22;29727;47.606;19.130;2023-04-25T12:28:17;15.60;57.80
44063;DHT22;29727;47.606;19.130;2023-04-25T12:31:05;15.80;56.00
44063;DHT22;29727;47.606;19.130;2023-04-25T12:33:33;15.90;56.30
44063;DHT22;29727;47.606;19.130;2023-04-25T12:36:00;15.90;56.80
44063;DHT22;29727;47.606;19.130;2023-04-25T12:38:31;16.30;57.40
44063;DHT22;29727;47.606;19.130;2023-04-25T12:40:58;16.10;57.70
44063;DHT22;29727;47.606;19.130;2023-04-25T12:43:24;16.30;58.20
44063;DHT22;29727;47.606;19.130;2023-04-25T12:45:51;16.40;58.00
44063;DHT22;29727;47.606;19.130;2023-04-25T12:48:17;16.50;56.30
44063;DHT22;29727;47.606;19.130;2023-04-25T12:50:43;16.70;57.10
44063;DHT22;29727;47.606;19.130;2023-04-25T12:53:09;16.80;55.20
44063;DHT22;29727;47.606;19.130;2023-04-25T12:55:35;17.00;55.30
44063;DHT22;29727;47.606;19.130;2023-04-25T12:58:00;17.20;52.60
44063;DHT22;29727;47.606;19.130;2023-04-25T13:00:26;17.30;53.20
44063;DHT22;29727;47.606;19.130;2023-04-25T13:02:52;17.50;51.80
44063;DHT22;29727;47.606;19.130;2023-04-25T13:05:17;17.90;50.80
44063;DHT22;29727;47.606;19.130;2023-04-25T13:07:43;17.60;51.30
44063;DHT22;29727;47.606;19.130;2023-04-25T13:10:09;17.70;52.00
44063;DHT22;29727;47.606;19.130;2023-04-25T13:12:36;17.80;49.80
44063;DHT22;29727;47.606;19.130;2023-04-25T13:15:01;17.80;48.90
44063;DHT22;29727;47.606;19.130;2023-04-25T13:17:27;17.80;47.60
44063;DHT22;29727;47.606;19.130;2023-04-25T13:19:52;17.80;48.90
44063;DHT22;29727;47.606;19.130;2023-04-25T13:22:18;17.70;48.20
44063;DHT22;29727;47.606;19.130;2023-04-25T13:24:46;17.70;49.80
44063;DHT22;29727;47.606;19.130;2023-04-25T13:27:12;17.80;49.80
44063;DHT22;29727;47.606;19.130;2023-04-25T13:29:38;17.90;48.90
44063;DHT22;29727;47.606;19.130;2023-04-25T13:32:06;17.90;48.30
44063;DHT22;29727;47.606;19.130;2023-04-25T13:34:32;17.90;49.40
44063;DHT22;29727;47.606;19.130;2023-04-25T13:36:58;18.00;49.50
44063;DHT22;29727;47.606;19.130;2023-04-25T13:39:24;18.00;50.00
44063;DHT22;29727;47.606;19.130;2023-04-25T13:41:50;18.10;47.60
44063;DHT22;29727;47.606;19.130;2023-04-25T13:44:16;18.10;46.40
44063;DHT22;29727;47.606;19.130;2023-04-25T13:46:41;18.20;47.10
44063;DHT22;29727;47.606;19.130;2023-04-25T13:49:07;18.20;47.40
44063;DHT22;29727;47.606;19.130;2023-04-25T13:51:33;18.30;48.70
44063;DHT22;29727;47.606;19.130;2023-04-25T13:53:58;18.40;46.10
44063;DHT22;29727;47.606;19.130;2023-04-25T13:56:24;18.40;47.60
44063;DHT22;29727;47.606;19.130;2023-04-25T13:58:50;18.40;45.30
44063;DHT22;29727;47.606;19.130;2023-04-25T14:01:17;18.40;45.60
44063;DHT22;29727;47.606;19.130;2023-04-25T14:03:43;18.50;45.20
44063;DHT22;29727;47.606;19.130;2023-04-25T14:06:08;18.40;44.30
44063;DHT22;29727;47.606;19.130;2023-04-25T14:08:34;18.30;44.20
44063;DHT22;29727;47.606;19.130;2023-04-25T14:11:00;18.10;44.80
44063;DHT22;29727;47.606;19.130;2023-04-25T14:13:26;18.00;45.00
44063;DHT22;29727;47.606;19.130;2023-04-25T14:15:52;17.90;45.00
44063;DHT22;29727;47.606;19.130;2023-04-25T14:18:18;17.70;44.80
44063;DHT22;29727;47.606;19.130;2023-04-25T14:20:45;17.80;45.30
44063;DHT22;29727;47.606;19.130;2023-04-25T14:23:11;17.70;45.20
44063;DHT22;29727;47.606;19.130;2023-04-25T14:25:36;17.60;45.60
44063;DHT22;29727;47.606;19.130;2023-04-25T14:28:03;17.70;45.90
44063;DHT22;29727;47.606;19.130;2023-04-25T14:30:29;17.50;45.00
44063;DHT22;29727;47.606;19.130;2023-04-25T14:32:54;17.50;45.80
44063;DHT22;29727;47.606;19.130;2023-04-25T14:35:20;17.40;46.00
44063;DHT22;29727;47.606;19.130;2023-04-25T14:37:46;17.40;46.60
44063;DHT22;29727;47.606;19.130;2023-04-25T14:40:13;17.30;47.10
44063;DHT22;29727;47.606;19.130;2023-04-25T14:42:40;17.40;47.60
44063;DHT22;29727;47.606;19.130;2023-04-25T14:45:07;17.40;46.50
44063;DHT22;29727;47.606;19.130;2023-04-25T14:47:37;17.60;46.20
44063;DHT22;29727;47.606;19.130;2023-04-25T14:50:03;17.60;46.30
44063;DHT22;29727;47.606;19.130;2023-04-25T14:52:30;17.60;46.90
44063;DHT22;29727;47.606;19.130;2023-04-25T14:54:56;17.70;46.90
44063;DHT22;29727;47.606;19.130;2023-04-25T14:57:22;17.70;45.70
44063;DHT22;29727;47.606;19.130;2023-04-25T14:59:47;17.70;46.30
44063;DHT22;29727;47.606;19.130;2023-04-25T15:02:13;17.70;44.90
44063;DHT22;29727;47.606;19.130;2023-04-25T15:04:39;17.70;45.50
44063;DHT22;29727;47.606;19.130;2023-04-25T15:07:05;17.60;44.60
44063;DHT22;29727;47.606;19.130;2023-04-25T15:09:30;17.60;45.90
44063;DHT22;29727;47.606;19.130;2023-04-25T15:11:57;17.60;47.20
44063;DHT22;29727;47.606;19.130;2023-04-25T15:14:23;17.60;44.70
44063;DHT22;29727;47.606;19.130;2023-04-25T15:16:48;17.60;45.00
44063;DHT22;29727;47.606;19.130;2023-04-25T15:19:14;17.60;45.80
44063;DHT22;29727;47.606;19.130;2023-04-25T15:21:40;17.60;44.70
44063;DHT22;29727;47.606;19.130;2023-04-25T15:24:06;17.70;45.40
44063;DHT22;29727;47.606;19.130;2023-04-25T15:26:33;17.70;45.70
44063;DHT22;29727;47.606;19.130;2023-04-25T15:28:58;17.70;44.80
44063;DHT22;29727;47.606;19.130;2023-04-25T15:31:24;17.80;45.20
44063;DHT22;29727;47.606;19.130;2023-04-25T15:33:50;17.70;44.80
44063;DHT22;29727;47.606;19.130;2023-04-25T15:36:15;17.70;43.60
44063;DHT22;29727;47.606;19.130;2023-04-25T15:38:43;17.60;43.40
44063;DHT22;29727;47.606;19.130;2023-04-25T15:41:09;17.50;44.30
44063;DHT22;29727;47.606;19.130;2023-04-25T15:43:35;17.40;44.60
44063;DHT22;29727;47.606;19.130;2023-04-25T15:46:03;17.30;45.20
44063;DHT22;29727;47.606;19.130;2023-04-25T15:48:30;17.10;47.10
44063;DHT22;29727;47.606;19.130;2023-04-25T15:50:57;17.00;46.90
44063;DHT22;29727;47.606;19.130;2023-04-25T15:53:22;16.90;46.40
44063;DHT22;29727;47.606;19.130;2023-04-25T15:55:48;17.00;46.70
44063;DHT22;29727;47.606;19.130;2023-04-25T15:58:14;16.90;46.50
44063;DHT22;29727;47.606;19.130;2023-04-25T16:00:40;16.80;46.60
44063;DHT22;29727;47.606;19.130;2023-04-25T16:03:05;16.70;48.00
44063;DHT22;29727;47.606;19.130;2023-04-25T16:05:32;16.70;48.10
44063;DHT22;29727;47.606;19.130;2023-04-25T16:07:57;16.90;46.80
44063;DHT22;29727;47.606;19.130;2023-04-25T16:10:24;16.80;47.10
44063;DHT22;29727;47.606;19.130;2023-04-25T16:12:50;16.70;47.90
44063;DHT22;29727;47.606;19.130;2023-04-25T16:15:19;16.80;52.30
44063;DHT22;29727;47.606;19.130;2023-04-25T16:17:44;16.80;52.20
44063;DHT22;29727;47.606;19.130;2023-04-25T16:20:10;16.70;52.70
44063;DHT22;29727;47.606;19.130;2023-04-25T16:22:41;16.50;53.00
44063;DHT22;29727;47.606;19.130;2023-04-25T16:25:08;16.50;54.00
44063;DHT22;29727;47.606;19.130;2023-04-25T16:27:35;16.20;54.60
44063;DHT22;29727;47.606;19.130;2023-04-25T16:30:04;16.30;55.10
44063;DHT22;29727;47.606;19.130;2023-04-25T16:32:30;16.20;55.20
44063;DHT22;29727;47.606;19.130;2023-04-25T16:34:56;16.00;55.90
44063;DHT22;29727;47.606;19.130;2023-04-25T16:37:23;16.00;56.30
44063;DHT22;29727;47.606;19.130;2023-04-25T16:39:49;15.90;56.90
44063;DHT22;29727;47.606;19.130;2023-04-25T16:42:15;15.60;56.90
44063;DHT22;29727;47.606;19.130;2023-04-25T16:44:40;15.60;57.80
44063;DHT22;29727;47.606;19.130;2023-04-25T16:47:06;15.50;57.80
44063;DHT22;29727;47.606;19.130;2023-04-25T16:49:32;15.50;58.00
44063;DHT22;29727;47.606;19.130;2023-04-25T16:51:58;15.40;58.50
44063;DHT22;29727;47.606;19.130;2023-04-25T16:54:23;15.40;58.90
44063;DHT22;29727;47.606;19.130;2023-04-25T16:56:52;15.20;59.60
44063;DHT22;29727;47.606;19.130;2023-04-25T16:59:18;15.10;60.40
44063;DHT22;29727;47.606;19.130;2023-04-25T17:01:44;15.10;60.60
44063;DHT22;29727;47.606;19.130;2023-04-25T17:04:10;15.10;60.20
44063;DHT22;29727;47.606;19.130;2023-04-25T17:06:36;14.80;60.30
44063;DHT22;29727;47.606;19.130;2023-04-25T17:09:01;15.00;60.70
44063;DHT22;29727;47.606;19.130;2023-04-25T17:11:27;15.00;60.40
44063;DHT22;29727;47.606;19.130;2023-04-25T17:13:53;15.00;61.70
44063;DHT22;29727;47.606;19.130;2023-04-25T17:16:19;15.10;60.90
44063;DHT22;29727;47.606;19.130;2023-04-25T17:18:48;15.10;60.80
44063;DHT22;29727;47.606;19.130;2023-04-25T17:21:15;15.20;61.50
44063;DHT22;29727;47.606;19.130;2023-04-25T17:23:41;15.20;61.30
44063;DHT22;29727;47.606;19.130;2023-04-25T17:26:11;15.30;60.40
44063;DHT22;29727;47.606;19.130;2023-04-25T17:28:37;15.30;60.70
44063;DHT22;29727;47.606;19.130;2023-04-25T17:31:03;15.40;59.90
44063;DHT22;29727;47.606;19.130;2023-04-25T17:33:28;15.30;59.30
44063;DHT22;29727;47.606;19.130;2023-04-25T17:35:54;15.30;57.80
44063;DHT22;29727;47.606;19.130;2023-04-25T17:38:20;15.20;58.00
44063;DHT22;29727;47.606;19.130;2023-04-25T17:40:46;15.20;58.30
44063;DHT22;29727;47.606;19.130;2023-04-25T17:43:12;15.20;58.30
44063;DHT22;29727;47.606;19.130;2023-04-25T17:45:37;15.20;57.60
44063;DHT22;29727;47.606;19.130;2023-04-25T17:48:03;15.10;57.60
44063;DHT22;29727;47.606;19.130;2023-04-25T17:50:31;15.10;57.60
44063;DHT22;29727;47.606;19.130;2023-04-25T17:52:57;15.00;57.20
44063;DHT22;29727;47.606;19.130;2023-04-25T17:55:24;15.10;57.10
44063;DHT22;29727;47.606;19.130;2023-04-25T17:57:49;15.10;57.30
44063;DHT22;29727;47.606;19.130;2023-04-25T18:00:18;15.10;57.10
44063;DHT22;29727;47.606;19.130;2023-04-25T18:02:43;15.00;57.40
44063;DHT22;29727;47.606;19.130;2023-04-25T18:05:11;15.00;57.70
44063;DHT22;29727;47.606;19.130;2023-04-25T18:07:37;15.00;56.90
44063;DHT22;29727;47.606;19.130;2023-04-25T18:10:05;15.10;57.00
44063;DHT22;29727;47.606;19.130;2023-04-25T18:12:32;15.10;58.20
44063;DHT22;29727;47.606;19.130;2023-04-25T18:14:58;15.00;57.60
44063;DHT22;29727;47.606;19.130;2023-04-25T18:17:24;14.90;58.00
44063;DHT22;29727;47.606;19.130;2023-04-25T18:19:50;15.00;57.40
44063;DHT22;29727;47.606;19.130;2023-04-25T18:22:18;15.00;58.30
44063;DHT22;29727;47.606;19.130;2023-04-25T18:24:45;15.10;57.60
44063;DHT22;29727;47.606;19.130;2023-04-25T18:27:10;15.00;57.80
44063;DHT22;29727;47.606;19.130;2023-04-25T18:29:36;14.60;57.20
